Aviation Digital Data Service (ADDS)

Output produced by METARs form (2107 UTC 24 March 2019)
found at http://www.aviationweather.gov/metar/data/
 
TAF TQPF 241700Z 2418/2518 09014KT 9999 SCT019